sensor_id;sensor_type;location;lat;lon;timestamp;P1;durP1;ratioP1;P2;durP2;ratioP2
33858;SDS011;20156;47.486;12.074;2022-07-21T00:01:26;11.07;;;9.73;;
33858;SDS011;20156;47.486;12.074;2022-07-21T00:03:51;11.18;;;10.07;;
33858;SDS011;20156;47.486;12.074;2022-07-21T00:06:17;11.23;;;10.02;;
33858;SDS011;20156;47.486;12.074;2022-07-21T00:08:42;12.57;;;11.25;;
33858;SDS011;20156;47.486;12.074;2022-07-21T00:11:08;11.25;;;9.95;;
33858;SDS011;20156;47.486;12.074;2022-07-21T00:13:33;9.80;;;8.63;;
33858;SDS011;20156;47.486;12.074;2022-07-21T00:15:59;11.35;;;10.18;;
33858;SDS011;20156;47.486;12.074;2022-07-21T00:18:25;11.32;;;9.98;;
33858;SDS011;20156;47.486;12.074;2022-07-21T00:20:53;10.27;;;9.38;;
33858;SDS011;20156;47.486;12.074;2022-07-21T00:23:20;10.68;;;9.68;;
33858;SDS011;20156;47.486;12.074;2022-07-21T00:25:46;10.05;;;9.07;;
33858;SDS011;20156;47.486;12.074;2022-07-21T00:28:11;11.30;;;10.13;;
33858;SDS011;20156;47.486;12.074;2022-07-21T00:30:36;10.23;;;9.23;;
33858;SDS011;20156;47.486;12.074;2022-07-21T00:33:02;12.27;;;9.93;;
33858;SDS011;20156;47.486;12.074;2022-07-21T00:35:27;10.40;;;9.40;;
33858;SDS011;20156;47.486;12.074;2022-07-21T00:37:53;12.10;;;10.63;;
33858;SDS011;20156;47.486;12.074;2022-07-21T00:40:18;11.95;;;10.75;;
33858;SDS011;20156;47.486;12.074;2022-07-21T00:42:44;10.13;;;9.13;;
33858;SDS011;20156;47.486;12.074;2022-07-21T00:45:09;12.35;;;9.90;;
33858;SDS011;20156;47.486;12.074;2022-07-21T00:47:36;11.57;;;10.38;;
33858;SDS011;20156;47.486;12.074;2022-07-21T00:50:03;9.18;;;8.38;;
33858;SDS011;20156;47.486;12.074;2022-07-21T00:52:32;11.27;;;10.18;;
33858;SDS011;20156;47.486;12.074;2022-07-21T00:54:57;12.73;;;11.43;;
33858;SDS011;20156;47.486;12.074;2022-07-21T00:57:23;11.38;;;9.20;;
33858;SDS011;20156;47.486;12.074;2022-07-21T00:59:48;9.77;;;8.77;;
33858;SDS011;20156;47.486;12.074;2022-07-21T01:02:14;10.35;;;9.35;;
33858;SDS011;20156;47.486;12.074;2022-07-21T01:04:40;10.90;;;9.80;;
33858;SDS011;20156;47.486;12.074;2022-07-21T01:07:05;12.32;;;10.98;;
33858;SDS011;20156;47.486;12.074;2022-07-21T01:09:31;11.50;;;10.32;;
33858;SDS011;20156;47.486;12.074;2022-07-21T01:11:58;9.95;;;8.38;;
33858;SDS011;20156;47.486;12.074;2022-07-21T01:14:25;9.70;;;8.80;;
33858;SDS011;20156;47.486;12.074;2022-07-21T01:16:51;10.88;;;9.77;;
33858;SDS011;20156;47.486;12.074;2022-07-21T01:19:16;10.52;;;9.43;;
33858;SDS011;20156;47.486;12.074;2022-07-21T01:21:43;12.82;;;11.50;;
33858;SDS011;20156;47.486;12.074;2022-07-21T01:24:10;10.90;;;9.30;;
33858;SDS011;20156;47.486;12.074;2022-07-21T01:26:40;9.50;;;8.18;;
33858;SDS011;20156;47.486;12.074;2022-07-21T01:29:13;10.48;;;9.40;;
33858;SDS011;20156;47.486;12.074;2022-07-21T01:31:40;10.35;;;9.27;;
33858;SDS011;20156;47.486;12.074;2022-07-21T01:34:07;11.77;;;10.57;;
33858;SDS011;20156;47.486;12.074;2022-07-21T01:36:33;11.60;;;9.95;;
33858;SDS011;20156;47.486;12.074;2022-07-21T01:38:59;10.77;;;9.77;;
33858;SDS011;20156;47.486;12.074;2022-07-21T01:41:43;9.77;;;8.88;;
33858;SDS011;20156;47.486;12.074;2022-07-21T01:44:09;9.60;;;8.50;;
33858;SDS011;20156;47.486;12.074;2022-07-21T01:46:40;9.38;;;8.43;;
33858;SDS011;20156;47.486;12.074;2022-07-21T01:49:09;11.18;;;10.07;;
33858;SDS011;20156;47.486;12.074;2022-07-21T01:51:35;10.32;;;9.32;;
33858;SDS011;20156;47.486;12.074;2022-07-21T01:54:01;9.65;;;8.75;;
33858;SDS011;20156;47.486;12.074;2022-07-21T01:56:26;11.10;;;9.90;;
33858;SDS011;20156;47.486;12.074;2022-07-21T01:58:52;9.38;;;8.48;;
33858;SDS011;20156;47.486;12.074;2022-07-21T02:01:20;9.95;;;8.82;;
33858;SDS011;20156;47.486;12.074;2022-07-21T02:03:47;10.02;;;9.02;;
33858;SDS011;20156;47.486;12.074;2022-07-21T02:06:13;10.38;;;9.23;;
33858;SDS011;20156;47.486;12.074;2022-07-21T02:08:40;10.20;;;9.20;;
33858;SDS011;20156;47.486;12.074;2022-07-21T02:11:07;11.02;;;9.93;;
33858;SDS011;20156;47.486;12.074;2022-07-21T02:13:33;10.00;;;9.10;;
33858;SDS011;20156;47.486;12.074;2022-07-21T02:15:58;11.45;;;9.38;;
33858;SDS011;20156;47.486;12.074;2022-07-21T02:18:23;10.30;;;9.30;;
33858;SDS011;20156;47.486;12.074;2022-07-21T02:20:49;10.85;;;9.70;;
33858;SDS011;20156;47.486;12.074;2022-07-21T02:23:17;11.30;;;10.20;;
33858;SDS011;20156;47.486;12.074;2022-07-21T02:25:43;11.40;;;10.32;;
33858;SDS011;20156;47.486;12.074;2022-07-21T02:28:09;12.13;;;10.95;;
33858;SDS011;20156;47.486;12.074;2022-07-21T02:30:34;11.90;;;10.70;;
33858;SDS011;20156;47.486;12.074;2022-07-21T02:33:00;12.63;;;11.32;;
33858;SDS011;20156;47.486;12.074;2022-07-21T02:35:26;13.90;;;11.07;;
33858;SDS011;20156;47.486;12.074;2022-07-21T02:37:51;12.68;;;11.45;;
33858;SDS011;20156;47.486;12.074;2022-07-21T02:40:17;12.68;;;11.38;;
33858;SDS011;20156;47.486;12.074;2022-07-21T02:42:42;13.38;;;12.07;;
33858;SDS011;20156;47.486;12.074;2022-07-21T02:45:08;12.05;;;10.82;;
33858;SDS011;20156;47.486;12.074;2022-07-21T02:47:48;13.02;;;11.63;;
33858;SDS011;20156;47.486;12.074;2022-07-21T02:50:41;13.52;;;12.13;;
33858;SDS011;20156;47.486;12.074;2022-07-21T02:53:08;14.32;;;12.93;;
33858;SDS011;20156;47.486;12.074;2022-07-21T02:55:38;14.32;;;12.82;;
33858;SDS011;20156;47.486;12.074;2022-07-21T03:00:44;15.43;;;13.93;;
33858;SDS011;20156;47.486;12.074;2022-07-21T03:03:13;16.65;;;13.00;;
33858;SDS011;20156;47.486;12.074;2022-07-21T03:05:38;14.95;;;12.07;;
33858;SDS011;20156;47.486;12.074;2022-07-21T03:08:04;16.13;;;12.60;;
33858;SDS011;20156;47.486;12.074;2022-07-21T03:10:30;15.45;;;13.23;;
33858;SDS011;20156;47.486;12.074;2022-07-21T03:12:56;14.30;;;12.80;;
33858;SDS011;20156;47.486;12.074;2022-07-21T03:15:22;15.50;;;12.60;;
33858;SDS011;20156;47.486;12.074;2022-07-21T03:17:48;13.50;;;11.68;;
33858;SDS011;20156;47.486;12.074;2022-07-21T03:20:13;15.63;;;11.77;;
33858;SDS011;20156;47.486;12.074;2022-07-21T03:22:39;14.52;;;13.02;;
33858;SDS011;20156;47.486;12.074;2022-07-21T03:25:04;15.63;;;13.15;;
33858;SDS011;20156;47.486;12.074;2022-07-21T03:27:30;13.55;;;11.32;;
33858;SDS011;20156;47.486;12.074;2022-07-21T03:29:56;13.60;;;10.63;;
33858;SDS011;20156;47.486;12.074;2022-07-21T03:32:21;14.48;;;11.65;;
33858;SDS011;20156;47.486;12.074;2022-07-21T03:34:47;13.10;;;11.40;;
33858;SDS011;20156;47.486;12.074;2022-07-21T03:37:12;15.63;;;13.25;;
33858;SDS011;20156;47.486;12.074;2022-07-21T03:39:38;14.05;;;12.00;;
33858;SDS011;20156;47.486;12.074;2022-07-21T03:42:03;16.15;;;14.45;;
33858;SDS011;20156;47.486;12.074;2022-07-21T03:44:29;13.05;;;11.32;;
33858;SDS011;20156;47.486;12.074;2022-07-21T03:46:55;14.68;;;13.13;;
33858;SDS011;20156;47.486;12.074;2022-07-21T03:49:23;12.10;;;10.40;;
33858;SDS011;20156;47.486;12.074;2022-07-21T03:51:49;15.52;;;13.80;;
33858;SDS011;20156;47.486;12.074;2022-07-21T03:54:14;15.70;;;12.68;;
33858;SDS011;20156;47.486;12.074;2022-07-21T03:56:40;14.13;;;12.18;;
33858;SDS011;20156;47.486;12.074;2022-07-21T03:59:05;14.98;;;13.40;;
33858;SDS011;20156;47.486;12.074;2022-07-21T04:01:30;18.40;;;16.40;;
33858;SDS011;20156;47.486;12.074;2022-07-21T04:03:56;14.75;;;13.18;;
33858;SDS011;20156;47.486;12.074;2022-07-21T04:06:21;18.38;;;15.15;;
33858;SDS011;20156;47.486;12.074;2022-07-21T04:08:46;14.63;;;13.13;;
33858;SDS011;20156;47.486;12.074;2022-07-21T04:11:12;16.38;;;14.23;;
33858;SDS011;20156;47.486;12.074;2022-07-21T04:13:37;13.65;;;12.35;;
33858;SDS011;20156;47.486;12.074;2022-07-21T04:16:03;13.45;;;12.13;;
33858;SDS011;20156;47.486;12.074;2022-07-21T04:18:28;15.88;;;14.27;;
33858;SDS011;20156;47.486;12.074;2022-07-21T04:20:54;15.77;;;13.05;;
33858;SDS011;20156;47.486;12.074;2022-07-21T04:23:19;15.02;;;13.32;;
33858;SDS011;20156;47.486;12.074;2022-07-21T04:25:45;14.63;;;13.13;;
33858;SDS011;20156;47.486;12.074;2022-07-21T04:28:10;14.30;;;12.80;;
33858;SDS011;20156;47.486;12.074;2022-07-21T04:30:36;13.50;;;12.15;;
33858;SDS011;20156;47.486;12.074;2022-07-21T04:33:02;15.18;;;12.95;;
33858;SDS011;20156;47.486;12.074;2022-07-21T04:35:27;14.90;;;13.40;;
33858;SDS011;20156;47.486;12.074;2022-07-21T04:37:53;15.85;;;13.43;;
33858;SDS011;20156;47.486;12.074;2022-07-21T04:40:18;15.15;;;12.73;;
33858;SDS011;20156;47.486;12.074;2022-07-21T04:42:44;15.70;;;13.82;;
33858;SDS011;20156;47.486;12.074;2022-07-21T04:45:10;14.63;;;13.23;;
33858;SDS011;20156;47.486;12.074;2022-07-21T04:47:47;16.10;;;14.32;;
33858;SDS011;20156;47.486;12.074;2022-07-21T04:50:15;14.80;;;13.27;;
33858;SDS011;20156;47.486;12.074;2022-07-21T04:52:41;13.20;;;11.73;;
33858;SDS011;20156;47.486;12.074;2022-07-21T04:55:07;14.15;;;12.73;;
33858;SDS011;20156;47.486;12.074;2022-07-21T04:57:37;15.27;;;13.77;;
33858;SDS011;20156;47.486;12.074;2022-07-21T05:00:07;14.73;;;13.10;;
33858;SDS011;20156;47.486;12.074;2022-07-21T05:02:34;14.98;;;13.02;;
33858;SDS011;20156;47.486;12.074;2022-07-21T05:05:00;14.25;;;12.80;;
33858;SDS011;20156;47.486;12.074;2022-07-21T05:07:26;12.82;;;11.50;;
33858;SDS011;20156;47.486;12.074;2022-07-21T05:09:52;15.82;;;14.32;;
33858;SDS011;20156;47.486;12.074;2022-07-21T05:12:17;12.88;;;11.68;;
33858;SDS011;20156;47.486;12.074;2022-07-21T05:14:43;15.45;;;13.88;;
33858;SDS011;20156;47.486;12.074;2022-07-21T05:17:08;19.77;;;16.58;;
33858;SDS011;20156;47.486;12.074;2022-07-21T05:19:33;20.95;;;17.75;;
33858;SDS011;20156;47.486;12.074;2022-07-21T05:21:59;14.75;;;13.30;;
33858;SDS011;20156;47.486;12.074;2022-07-21T05:24:24;15.50;;;13.90;;
33858;SDS011;20156;47.486;12.074;2022-07-21T05:26:49;14.43;;;13.02;;
33858;SDS011;20156;47.486;12.074;2022-07-21T05:29:15;16.90;;;14.00;;
33858;SDS011;20156;47.486;12.074;2022-07-21T05:31:40;16.00;;;12.18;;
33858;SDS011;20156;47.486;12.074;2022-07-21T05:34:06;12.82;;;11.52;;
33858;SDS011;20156;47.486;12.074;2022-07-21T05:36:31;13.95;;;12.55;;
33858;SDS011;20156;47.486;12.074;2022-07-21T05:38:57;15.50;;;13.93;;
33858;SDS011;20156;47.486;12.074;2022-07-21T05:41:22;14.30;;;12.80;;
33858;SDS011;20156;47.486;12.074;2022-07-21T05:43:48;12.90;;;11.60;;
33858;SDS011;20156;47.486;12.074;2022-07-21T05:46:13;15.30;;;13.50;;
33858;SDS011;20156;47.486;12.074;2022-07-21T05:48:39;14.85;;;13.35;;
33858;SDS011;20156;47.486;12.074;2022-07-21T05:51:04;20.33;;;17.23;;
33858;SDS011;20156;47.486;12.074;2022-07-21T05:53:30;17.30;;;15.45;;
33858;SDS011;20156;47.486;12.074;2022-07-21T05:55:56;15.98;;;14.23;;
33858;SDS011;20156;47.486;12.074;2022-07-21T05:58:21;16.25;;;14.55;;
33858;SDS011;20156;47.486;12.074;2022-07-21T06:00:49;14.60;;;13.13;;
33858;SDS011;20156;47.486;12.074;2022-07-21T06:03:33;15.52;;;13.55;;
33858;SDS011;20156;47.486;12.074;2022-07-21T06:06:00;16.27;;;14.30;;
33858;SDS011;20156;47.486;12.074;2022-07-21T06:08:25;15.93;;;14.40;;
33858;SDS011;20156;47.486;12.074;2022-07-21T06:10:50;17.67;;;14.93;;
33858;SDS011;20156;47.486;12.074;2022-07-21T06:13:16;15.52;;;13.90;;
33858;SDS011;20156;47.486;12.074;2022-07-21T06:15:41;17.83;;;14.73;;
33858;SDS011;20156;47.486;12.074;2022-07-21T06:18:07;15.27;;;13.73;;
33858;SDS011;20156;47.486;12.074;2022-07-21T06:20:32;17.80;;;14.82;;
33858;SDS011;20156;47.486;12.074;2022-07-21T06:22:58;15.98;;;14.38;;
33858;SDS011;20156;47.486;12.074;2022-07-21T06:25:23;14.73;;;13.23;;
33858;SDS011;20156;47.486;12.074;2022-07-21T06:27:48;18.25;;;15.10;;
33858;SDS011;20156;47.486;12.074;2022-07-21T06:30:14;15.35;;;13.50;;
33858;SDS011;20156;47.486;12.074;2022-07-21T06:32:39;17.02;;;15.25;;
33858;SDS011;20156;47.486;12.074;2022-07-21T06:35:06;16.38;;;14.68;;
33858;SDS011;20156;47.486;12.074;2022-07-21T06:37:32;16.67;;;14.85;;
33858;SDS011;20156;47.486;12.074;2022-07-21T06:39:57;17.85;;;15.70;;
33858;SDS011;20156;47.486;12.074;2022-07-21T06:42:24;20.55;;;15.90;;
33858;SDS011;20156;47.486;12.074;2022-07-21T06:44:50;16.90;;;15.23;;
33858;SDS011;20156;47.486;12.074;2022-07-21T06:47:16;14.73;;;12.60;;
33858;SDS011;20156;47.486;12.074;2022-07-21T06:49:41;15.18;;;13.10;;
33858;SDS011;20156;47.486;12.074;2022-07-21T06:52:07;15.18;;;13.60;;
33858;SDS011;20156;47.486;12.074;2022-07-21T06:54:32;14.30;;;11.27;;
33858;SDS011;20156;47.486;12.074;2022-07-21T06:56:58;13.35;;;11.50;;
33858;SDS011;20156;47.486;12.074;2022-07-21T06:59:23;14.45;;;12.95;;
33858;SDS011;20156;47.486;12.074;2022-07-21T07:01:49;16.65;;;12.73;;
33858;SDS011;20156;47.486;12.074;2022-07-21T07:04:14;12.90;;;11.60;;
33858;SDS011;20156;47.486;12.074;2022-07-21T07:06:39;13.88;;;11.35;;
33858;SDS011;20156;47.486;12.074;2022-07-21T07:09:05;11.73;;;10.52;;
33858;SDS011;20156;47.486;12.074;2022-07-21T07:11:30;11.88;;;9.25;;
33858;SDS011;20156;47.486;12.074;2022-07-21T07:13:58;10.02;;;9.10;;
33858;SDS011;20156;47.486;12.074;2022-07-21T07:16:23;9.90;;;8.90;;
33858;SDS011;20156;47.486;12.074;2022-07-21T07:18:48;12.55;;;8.57;;
33858;SDS011;20156;47.486;12.074;2022-07-21T07:21:14;9.70;;;8.70;;
33858;SDS011;20156;47.486;12.074;2022-07-21T07:23:39;11.13;;;10.02;;
33858;SDS011;20156;47.486;12.074;2022-07-21T07:26:05;13.30;;;11.68;;
33858;SDS011;20156;47.486;12.074;2022-07-21T07:28:30;12.43;;;11.13;;
33858;SDS011;20156;47.486;12.074;2022-07-21T07:30:56;13.35;;;10.63;;
33858;SDS011;20156;47.486;12.074;2022-07-21T07:33:21;12.90;;;11.48;;
33858;SDS011;20156;47.486;12.074;2022-07-21T07:35:47;11.00;;;9.90;;
33858;SDS011;20156;47.486;12.074;2022-07-21T07:38:13;9.13;;;8.23;;
33858;SDS011;20156;47.486;12.074;2022-07-21T07:40:39;11.27;;;9.73;;
33858;SDS011;20156;47.486;12.074;2022-07-21T07:43:05;11.40;;;10.25;;
33858;SDS011;20156;47.486;12.074;2022-07-21T07:45:31;11.13;;;9.68;;
33858;SDS011;20156;47.486;12.074;2022-07-21T07:47:57;9.48;;;8.40;;
33858;SDS011;20156;47.486;12.074;2022-07-21T07:50:22;9.10;;;8.20;;
33858;SDS011;20156;47.486;12.074;2022-07-21T07:52:47;12.48;;;10.73;;
33858;SDS011;20156;47.486;12.074;2022-07-21T07:55:13;9.30;;;8.40;;
33858;SDS011;20156;47.486;12.074;2022-07-21T07:57:40;12.40;;;9.43;;
33858;SDS011;20156;47.486;12.074;2022-07-21T08:00:08;10.90;;;8.80;;
33858;SDS011;20156;47.486;12.074;2022-07-21T08:02:36;10.27;;;8.10;;
33858;SDS011;20156;47.486;12.074;2022-07-21T08:05:02;9.68;;;8.63;;
33858;SDS011;20156;47.486;12.074;2022-07-21T08:07:28;8.60;;;7.80;;
33858;SDS011;20156;47.486;12.074;2022-07-21T08:09:54;8.85;;;7.82;;
33858;SDS011;20156;47.486;12.074;2022-07-21T08:12:19;8.90;;;7.15;;
33858;SDS011;20156;47.486;12.074;2022-07-21T08:14:45;10.32;;;8.77;;
33858;SDS011;20156;47.486;12.074;2022-07-21T08:17:10;7.90;;;7.10;;
33858;SDS011;20156;47.486;12.074;2022-07-21T08:19:36;8.98;;;7.47;;
33858;SDS011;20156;47.486;12.074;2022-07-21T08:22:01;7.97;;;7.18;;
33858;SDS011;20156;47.486;12.074;2022-07-21T08:24:27;7.25;;;6.55;;
33858;SDS011;20156;47.486;12.074;2022-07-21T08:26:52;7.47;;;6.70;;
33858;SDS011;20156;47.486;12.074;2022-07-21T08:29:18;9.35;;;6.55;;
33858;SDS011;20156;47.486;12.074;2022-07-21T08:31:44;7.43;;;6.72;;
33858;SDS011;20156;47.486;12.074;2022-07-21T08:34:09;9.30;;;7.63;;
33858;SDS011;20156;47.486;12.074;2022-07-21T08:36:35;9.45;;;6.90;;
33858;SDS011;20156;47.486;12.074;2022-07-21T08:39:00;9.40;;;6.88;;
33858;SDS011;20156;47.486;12.074;2022-07-21T08:41:26;9.95;;;7.60;;
33858;SDS011;20156;47.486;12.074;2022-07-21T08:43:51;8.07;;;6.97;;
33858;SDS011;20156;47.486;12.074;2022-07-21T08:46:18;8.20;;;7.40;;
33858;SDS011;20156;47.486;12.074;2022-07-21T08:48:46;10.30;;;8.07;;
33858;SDS011;20156;47.486;12.074;2022-07-21T08:51:13;8.55;;;7.78;;
33858;SDS011;20156;47.486;12.074;2022-07-21T08:53:43;9.73;;;8.82;;
33858;SDS011;20156;47.486;12.074;2022-07-21T08:56:09;9.38;;;8.40;;
33858;SDS011;20156;47.486;12.074;2022-07-21T08:58:34;9.70;;;8.70;;
33858;SDS011;20156;47.486;12.074;2022-07-21T09:01:01;9.23;;;8.40;;
33858;SDS011;20156;47.486;12.074;2022-07-21T09:03:26;10.18;;;9.07;;
33858;SDS011;20156;47.486;12.074;2022-07-21T09:06:09;11.15;;;9.68;;
33858;SDS011;20156;47.486;12.074;2022-07-21T09:08:44;9.77;;;8.75;;
33858;SDS011;20156;47.486;12.074;2022-07-21T09:14:06;9.85;;;8.45;;
33858;SDS011;20156;47.486;12.074;2022-07-21T09:16:53;9.90;;;9.00;;
33858;SDS011;20156;47.486;12.074;2022-07-21T09:21:59;9.25;;;8.45;;
33858;SDS011;20156;47.486;12.074;2022-07-21T09:24:30;10.02;;;9.05;;
33858;SDS011;20156;47.486;12.074;2022-07-21T09:29:52;9.00;;;8.10;;
33858;SDS011;20156;47.486;12.074;2022-07-21T09:37:46;9.63;;;8.73;;
33858;SDS011;20156;47.486;12.074;2022-07-21T09:40:13;10.05;;;9.05;;
33858;SDS011;20156;47.486;12.074;2022-07-21T09:42:40;11.02;;;9.93;;
33858;SDS011;20156;47.486;12.074;2022-07-21T09:45:08;9.43;;;8.55;;
33858;SDS011;20156;47.486;12.074;2022-07-21T09:47:36;10.82;;;9.32;;
33858;SDS011;20156;47.486;12.074;2022-07-21T09:50:04;9.98;;;8.98;;
33858;SDS011;20156;47.486;12.074;2022-07-21T09:52:32;10.18;;;9.25;;
33858;SDS011;20156;47.486;12.074;2022-07-21T09:55:03;11.00;;;9.30;;
33858;SDS011;20156;47.486;12.074;2022-07-21T09:57:34;10.00;;;9.00;;
33858;SDS011;20156;47.486;12.074;2022-07-21T10:00:00;10.77;;;9.68;;
33858;SDS011;20156;47.486;12.074;2022-07-21T10:02:31;9.65;;;8.80;;
33858;SDS011;20156;47.486;12.074;2022-07-21T10:04:58;9.27;;;8.38;;
33858;SDS011;20156;47.486;12.074;2022-07-21T10:07:26;9.75;;;8.65;;
33858;SDS011;20156;47.486;12.074;2022-07-21T10:09:53;9.52;;;8.63;;
33858;SDS011;20156;47.486;12.074;2022-07-21T10:12:20;11.10;;;8.85;;
33858;SDS011;20156;47.486;12.074;2022-07-21T10:14:46;10.43;;;9.30;;
33858;SDS011;20156;47.486;12.074;2022-07-21T10:17:13;12.85;;;9.32;;
33858;SDS011;20156;47.486;12.074;2022-07-21T10:19:42;9.93;;;8.85;;
33858;SDS011;20156;47.486;12.074;2022-07-21T10:24:54;9.57;;;8.57;;
33858;SDS011;20156;47.486;12.074;2022-07-21T10:27:19;9.45;;;8.65;;
33858;SDS011;20156;47.486;12.074;2022-07-21T10:32:26;9.43;;;8.43;;
33858;SDS011;20156;47.486;12.074;2022-07-21T10:35:48;10.50;;;9.23;;
33858;SDS011;20156;47.486;12.074;2022-07-21T10:37:53;9.98;;;9.00;;
33858;SDS011;20156;47.486;12.074;2022-07-21T10:42:44;9.38;;;8.40;;
33858;SDS011;20156;47.486;12.074;2022-07-21T10:45:53;10.48;;;9.43;;
33858;SDS011;20156;47.486;12.074;2022-07-21T10:48:03;9.75;;;8.75;;
33858;SDS011;20156;47.486;12.074;2022-07-21T10:50:31;9.68;;;8.77;;
33858;SDS011;20156;47.486;12.074;2022-07-21T10:52:59;9.68;;;8.77;;
33858;SDS011;20156;47.486;12.074;2022-07-21T10:55:28;9.30;;;8.43;;
33858;SDS011;20156;47.486;12.074;2022-07-21T10:58:12;11.10;;;9.82;;
33858;SDS011;20156;47.486;12.074;2022-07-21T11:00:39;9.30;;;8.38;;
33858;SDS011;20156;47.486;12.074;2022-07-21T11:03:26;9.98;;;9.07;;
33858;SDS011;20156;47.486;12.074;2022-07-21T11:13:58;10.32;;;9.32;;
33858;SDS011;20156;47.486;12.074;2022-07-21T11:22:15;9.85;;;8.95;;
33858;SDS011;20156;47.486;12.074;2022-07-21T11:24:56;11.43;;;10.20;;
33858;SDS011;20156;47.486;12.074;2022-07-21T11:27:25;10.65;;;9.65;;
33858;SDS011;20156;47.486;12.074;2022-07-21T11:29:55;10.60;;;9.60;;
33858;SDS011;20156;47.486;12.074;2022-07-21T11:32:23;11.75;;;10.55;;
33858;SDS011;20156;47.486;12.074;2022-07-21T11:34:52;11.48;;;10.27;;
33858;SDS011;20156;47.486;12.074;2022-07-21T11:37:40;10.75;;;9.75;;
33858;SDS011;20156;47.486;12.074;2022-07-21T11:42:44;11.60;;;10.43;;
33858;SDS011;20156;47.486;12.074;2022-07-21T11:45:10;11.52;;;10.05;;
33858;SDS011;20156;47.486;12.074;2022-07-21T11:47:37;11.05;;;10.02;;
33858;SDS011;20156;47.486;12.074;2022-07-21T11:50:04;11.02;;;10.02;;
33858;SDS011;20156;47.486;12.074;2022-07-21T11:52:33;12.20;;;10.98;;
33858;SDS011;20156;47.486;12.074;2022-07-21T11:55:02;11.32;;;10.23;;
33858;SDS011;20156;47.486;12.074;2022-07-21T11:57:31;11.02;;;10.02;;
33858;SDS011;20156;47.486;12.074;2022-07-21T11:59:57;11.70;;;10.48;;
33858;SDS011;20156;47.486;12.074;2022-07-21T12:02:27;12.60;;;10.68;;
33858;SDS011;20156;47.486;12.074;2022-07-21T12:04:55;11.88;;;10.68;;
33858;SDS011;20156;47.486;12.074;2022-07-21T12:10:10;12.93;;;11.48;;
33858;SDS011;20156;47.486;12.074;2022-07-21T12:12:42;12.27;;;11.07;;
33858;SDS011;20156;47.486;12.074;2022-07-21T12:17:51;11.93;;;10.65;;
33858;SDS011;20156;47.486;12.074;2022-07-21T12:20:26;12.35;;;10.52;;
33858;SDS011;20156;47.486;12.074;2022-07-21T12:22:56;13.32;;;10.85;;
33858;SDS011;20156;47.486;12.074;2022-07-21T12:25:36;12.15;;;10.90;;
33858;SDS011;20156;47.486;12.074;2022-07-21T12:28:04;12.57;;;11.35;;
33858;SDS011;20156;47.486;12.074;2022-07-21T12:33:01;11.07;;;9.98;;
33858;SDS011;20156;47.486;12.074;2022-07-21T12:35:28;12.80;;;10.48;;
33858;SDS011;20156;47.486;12.074;2022-07-21T12:38:01;11.23;;;10.05;;
33858;SDS011;20156;47.486;12.074;2022-07-21T12:40:30;11.40;;;9.88;;
33858;SDS011;20156;47.486;12.074;2022-07-21T12:43:09;10.75;;;9.65;;
33858;SDS011;20156;47.486;12.074;2022-07-21T12:45:44;9.98;;;8.98;;
33858;SDS011;20156;47.486;12.074;2022-07-21T12:48:36;10.93;;;9.93;;
33858;SDS011;20156;47.486;12.074;2022-07-21T12:51:03;11.77;;;9.27;;
33858;SDS011;20156;47.486;12.074;2022-07-21T12:53:41;10.27;;;8.90;;
33858;SDS011;20156;47.486;12.074;2022-07-21T12:56:12;11.45;;;9.63;;
33858;SDS011;20156;47.486;12.074;2022-07-21T12:58:40;10.70;;;8.93;;
33858;SDS011;20156;47.486;12.074;2022-07-21T13:01:06;9.93;;;9.00;;
33858;SDS011;20156;47.486;12.074;2022-07-21T13:03:32;9.90;;;8.90;;
33858;SDS011;20156;47.486;12.074;2022-07-21T13:05:59;9.40;;;8.10;;
33858;SDS011;20156;47.486;12.074;2022-07-21T13:08:26;8.05;;;7.18;;
33858;SDS011;20156;47.486;12.074;2022-07-21T13:10:52;8.82;;;8.00;;
33858;SDS011;20156;47.486;12.074;2022-07-21T13:13:17;7.95;;;7.25;;
33858;SDS011;20156;47.486;12.074;2022-07-21T13:15:43;8.68;;;7.78;;
33858;SDS011;20156;47.486;12.074;2022-07-21T13:18:08;8.30;;;7.18;;
33858;SDS011;20156;47.486;12.074;2022-07-21T13:20:34;10.40;;;7.82;;
33858;SDS011;20156;47.486;12.074;2022-07-21T13:22:59;8.02;;;7.32;;
33858;SDS011;20156;47.486;12.074;2022-07-21T13:25:25;8.27;;;7.47;;
33858;SDS011;20156;47.486;12.074;2022-07-21T13:27:50;8.80;;;7.82;;
33858;SDS011;20156;47.486;12.074;2022-07-21T13:30:16;9.77;;;8.07;;
33858;SDS011;20156;47.486;12.074;2022-07-21T13:32:42;9.32;;;7.63;;
33858;SDS011;20156;47.486;12.074;2022-07-21T13:35:08;9.15;;;8.25;;
33858;SDS011;20156;47.486;12.074;2022-07-21T13:37:34;8.93;;;8.05;;
33858;SDS011;20156;47.486;12.074;2022-07-21T13:39:59;8.20;;;7.43;;
33858;SDS011;20156;47.486;12.074;2022-07-21T13:42:25;9.30;;;8.32;;
33858;SDS011;20156;47.486;12.074;2022-07-21T13:44:50;12.13;;;8.63;;
33858;SDS011;20156;47.486;12.074;2022-07-21T13:47:16;10.27;;;9.18;;
33858;SDS011;20156;47.486;12.074;2022-07-21T13:49:41;10.30;;;9.32;;
33858;SDS011;20156;47.486;12.074;2022-07-21T13:52:07;11.88;;;9.60;;
33858;SDS011;20156;47.486;12.074;2022-07-21T13:54:32;13.85;;;10.30;;
33858;SDS011;20156;47.486;12.074;2022-07-21T13:56:58;10.20;;;9.20;;
33858;SDS011;20156;47.486;12.074;2022-07-21T13:59:24;10.45;;;9.43;;
33858;SDS011;20156;47.486;12.074;2022-07-21T14:01:50;11.48;;;9.90;;
33858;SDS011;20156;47.486;12.074;2022-07-21T14:04:16;12.70;;;10.93;;
33858;SDS011;20156;47.486;12.074;2022-07-21T14:06:41;11.70;;;10.50;;
33858;SDS011;20156;47.486;12.074;2022-07-21T14:09:11;14.32;;;11.50;;
33858;SDS011;20156;47.486;12.074;2022-07-21T14:11:37;11.60;;;9.60;;
33858;SDS011;20156;47.486;12.074;2022-07-21T14:14:03;12.32;;;10.27;;
33858;SDS011;20156;47.486;12.074;2022-07-21T14:16:28;11.35;;;9.07;;
33858;SDS011;20156;47.486;12.074;2022-07-21T14:18:54;10.70;;;9.60;;
33858;SDS011;20156;47.486;12.074;2022-07-21T14:21:19;10.48;;;9.43;;
33858;SDS011;20156;47.486;12.074;2022-07-21T14:23:45;11.15;;;10.02;;
33858;SDS011;20156;47.486;12.074;2022-07-21T14:26:10;10.15;;;9.05;;
33858;SDS011;20156;47.486;12.074;2022-07-21T14:28:36;9.18;;;8.25;;
33858;SDS011;20156;47.486;12.074;2022-07-21T14:31:01;9.93;;;8.57;;
33858;SDS011;20156;47.486;12.074;2022-07-21T14:33:27;10.40;;;8.48;;
33858;SDS011;20156;47.486;12.074;2022-07-21T14:35:54;8.90;;;7.50;;
33858;SDS011;20156;47.486;12.074;2022-07-21T14:38:19;7.85;;;7.05;;
33858;SDS011;20156;47.486;12.074;2022-07-21T14:40:45;7.13;;;6.20;;
33858;SDS011;20156;47.486;12.074;2022-07-21T14:43:10;7.75;;;6.88;;
33858;SDS011;20156;47.486;12.074;2022-07-21T14:45:36;7.57;;;6.78;;
33858;SDS011;20156;47.486;12.074;2022-07-21T14:48:01;7.35;;;6.63;;
33858;SDS011;20156;47.486;12.074;2022-07-21T14:50:27;7.45;;;6.72;;
33858;SDS011;20156;47.486;12.074;2022-07-21T14:52:56;7.63;;;5.95;;
33858;SDS011;20156;47.486;12.074;2022-07-21T14:55:22;7.05;;;6.35;;
33858;SDS011;20156;47.486;12.074;2022-07-21T14:57:49;6.45;;;5.85;;
33858;SDS011;20156;47.486;12.074;2022-07-21T15:00:16;7.85;;;6.05;;
33858;SDS011;20156;47.486;12.074;2022-07-21T15:02:42;6.80;;;6.13;;
33858;SDS011;20156;47.486;12.074;2022-07-21T15:05:08;6.90;;;5.97;;
33858;SDS011;20156;47.486;12.074;2022-07-21T15:07:33;7.88;;;6.18;;